sensor_id;sensor_type;location;lat;lon;timestamp;pressure;altitude;pressure_sealevel;temperature;humidity
79538;BME280;68989;52.032;5.152;2023-10-13T00:01:30;101238.88;;;24.57;56.80
79538;BME280;68989;52.032;5.152;2023-10-13T00:03:57;101236.84;;;24.58;56.76
79538;BME280;68989;52.032;5.152;2023-10-13T00:06:24;101236.26;;;24.59;56.81
79538;BME280;68989;52.032;5.152;2023-10-13T00:08:52;101229.98;;;24.60;56.62
79538;BME280;68989;52.032;5.152;2023-10-13T00:11:20;101228.03;;;24.60;56.53
79538;BME280;68989;52.032;5.152;2023-10-13T00:13:47;101222.89;;;24.60;56.55
79538;BME280;68989;52.032;5.152;2023-10-13T00:16:14;101222.35;;;24.60;56.54
79538;BME280;68989;52.032;5.152;2023-10-13T00:18:41;101216.96;;;24.60;56.47
79538;BME280;68989;52.032;5.152;2023-10-13T00:21:09;101219.97;;;24.60;56.63
79538;BME280;68989;52.032;5.152;2023-10-13T00:23:36;101214.52;;;24.59;56.67
79538;BME280;68989;52.032;5.152;2023-10-13T00:26:03;101216.68;;;24.60;56.72
79538;BME280;68989;52.032;5.152;2023-10-13T00:28:31;101215.85;;;24.60;56.72
79538;BME280;68989;52.032;5.152;2023-10-13T00:30:58;101212.47;;;24.59;56.81
79538;BME280;68989;52.032;5.152;2023-10-13T00:33:25;101205.02;;;24.60;56.79
79538;BME280;68989;52.032;5.152;2023-10-13T00:35:53;101203.49;;;24.60;56.77
79538;BME280;68989;52.032;5.152;2023-10-13T00:38:20;101200.86;;;24.60;56.75
79538;BME280;68989;52.032;5.152;2023-10-13T00:40:47;101199.47;;;24.62;56.64
79538;BME280;68989;52.032;5.152;2023-10-13T00:43:15;101192.95;;;24.61;56.70
79538;BME280;68989;52.032;5.152;2023-10-13T00:45:43;101188.53;;;24.61;56.82
79538;BME280;68989;52.032;5.152;2023-10-13T00:48:10;101184.50;;;24.60;56.84
79538;BME280;68989;52.032;5.152;2023-10-13T00:50:38;101190.51;;;24.58;56.85
79538;BME280;68989;52.032;5.152;2023-10-13T00:53:05;101189.83;;;24.58;56.97
79538;BME280;68989;52.032;5.152;2023-10-13T00:55:34;101185.18;;;24.59;56.90
79538;BME280;68989;52.032;5.152;2023-10-13T00:58:01;101173.40;;;24.58;56.81
79538;BME280;68989;52.032;5.152;2023-10-13T01:01:31;101174.79;;;24.58;56.80
79538;BME280;68989;52.032;5.152;2023-10-13T01:03:59;101169.69;;;24.55;56.86
79538;BME280;68989;52.032;5.152;2023-10-13T01:06:27;101169.08;;;24.55;56.95
79538;BME280;68989;52.032;5.152;2023-10-13T01:08:59;101165.47;;;24.55;56.83
79538;BME280;68989;52.032;5.152;2023-10-13T01:11:27;101163.45;;;24.57;56.83
79538;BME280;68989;52.032;5.152;2023-10-13T01:13:54;101154.72;;;24.57;56.76
79538;BME280;68989;52.032;5.152;2023-10-13T01:16:21;101152.94;;;24.57;56.74
79538;BME280;68989;52.032;5.152;2023-10-13T01:18:48;101147.77;;;24.56;56.78
79538;BME280;68989;52.032;5.152;2023-10-13T01:21:16;101140.31;;;24.56;56.86
79538;BME280;68989;52.032;5.152;2023-10-13T01:23:43;101140.19;;;24.54;56.81
79538;BME280;68989;52.032;5.152;2023-10-13T01:26:10;101140.37;;;24.55;56.84
79538;BME280;68989;52.032;5.152;2023-10-13T01:28:38;101138.14;;;24.55;56.76
79538;BME280;68989;52.032;5.152;2023-10-13T01:31:05;101134.92;;;24.54;56.76
79538;BME280;68989;52.032;5.152;2023-10-13T01:33:32;101133.30;;;24.54;56.58
79538;BME280;68989;52.032;5.152;2023-10-13T01:36:00;101127.61;;;24.52;56.77
79538;BME280;68989;52.032;5.152;2023-10-13T01:38:27;101127.21;;;24.52;56.70
79538;BME280;68989;52.032;5.152;2023-10-13T01:40:55;101125.30;;;24.53;56.73
79538;BME280;68989;52.032;5.152;2023-10-13T01:43:22;101120.87;;;24.54;56.65
79538;BME280;68989;52.032;5.152;2023-10-13T01:45:49;101118.48;;;24.54;56.72
79538;BME280;68989;52.032;5.152;2023-10-13T01:48:16;101112.86;;;24.55;56.73
79538;BME280;68989;52.032;5.152;2023-10-13T01:50:50;101114.73;;;24.55;56.73
79538;BME280;68989;52.032;5.152;2023-10-13T01:53:18;101114.42;;;24.55;56.76
79538;BME280;68989;52.032;5.152;2023-10-13T01:55:45;101107.04;;;24.55;56.85
79538;BME280;68989;52.032;5.152;2023-10-13T01:58:13;101108.39;;;24.53;56.92
79538;BME280;68989;52.032;5.152;2023-10-13T02:00:41;101102.77;;;24.51;56.91
79538;BME280;68989;52.032;5.152;2023-10-13T02:03:10;101105.18;;;24.49;56.98
79538;BME280;68989;52.032;5.152;2023-10-13T02:05:38;101097.25;;;24.48;56.90
79538;BME280;68989;52.032;5.152;2023-10-13T02:08:05;101093.44;;;24.47;56.99
79538;BME280;68989;52.032;5.152;2023-10-13T02:10:33;101092.92;;;24.48;56.83
79538;BME280;68989;52.032;5.152;2023-10-13T02:13:00;101088.04;;;24.48;56.82
79538;BME280;68989;52.032;5.152;2023-10-13T02:15:27;101085.48;;;24.49;56.79
79538;BME280;68989;52.032;5.152;2023-10-13T02:17:55;101083.29;;;24.47;56.74
79538;BME280;68989;52.032;5.152;2023-10-13T02:20:22;101082.83;;;24.46;56.66
79538;BME280;68989;52.032;5.152;2023-10-13T02:22:50;101080.16;;;24.46;56.60
79538;BME280;68989;52.032;5.152;2023-10-13T02:25:18;101071.87;;;24.46;56.57
79538;BME280;68989;52.032;5.152;2023-10-13T02:27:45;101066.96;;;24.46;56.03
79538;BME280;68989;52.032;5.152;2023-10-13T02:30:13;101063.45;;;24.46;55.98
79538;BME280;68989;52.032;5.152;2023-10-13T02:32:40;101059.67;;;24.45;55.88
79538;BME280;68989;52.032;5.152;2023-10-13T02:35:08;101057.03;;;24.45;55.70
79538;BME280;68989;52.032;5.152;2023-10-13T02:37:35;101048.37;;;24.45;55.45
79538;BME280;68989;52.032;5.152;2023-10-13T02:40:03;101045.58;;;24.46;55.31
79538;BME280;68989;52.032;5.152;2023-10-13T02:42:31;101043.27;;;24.46;55.31
79538;BME280;68989;52.032;5.152;2023-10-13T02:44:58;101033.52;;;24.46;55.31
79538;BME280;68989;52.032;5.152;2023-10-13T02:47:26;101024.55;;;24.46;55.20
79538;BME280;68989;52.032;5.152;2023-10-13T02:49:53;101024.39;;;24.47;55.22
79538;BME280;68989;52.032;5.152;2023-10-13T02:52:20;101008.11;;;24.47;55.24
79538;BME280;68989;52.032;5.152;2023-10-13T02:54:48;100998.32;;;24.46;55.24
79538;BME280;68989;52.032;5.152;2023-10-13T02:57:15;100997.21;;;24.48;55.45
79538;BME280;68989;52.032;5.152;2023-10-13T02:59:45;100986.54;;;24.49;55.10
79538;BME280;68989;52.032;5.152;2023-10-13T03:02:13;100977.63;;;24.49;55.47
79538;BME280;68989;52.032;5.152;2023-10-13T03:04:41;100970.39;;;24.49;55.23
79538;BME280;68989;52.032;5.152;2023-10-13T03:07:08;100963.80;;;24.47;55.72
79538;BME280;68989;52.032;5.152;2023-10-13T03:09:35;100964.79;;;24.44;55.83
79538;BME280;68989;52.032;5.152;2023-10-13T03:12:03;100957.53;;;24.42;55.78
79538;BME280;68989;52.032;5.152;2023-10-13T03:14:31;100959.40;;;24.45;55.54
79538;BME280;68989;52.032;5.152;2023-10-13T03:17:01;100965.33;;;24.46;55.37
79538;BME280;68989;52.032;5.152;2023-10-13T03:19:29;100975.27;;;24.46;55.12
79538;BME280;68989;52.032;5.152;2023-10-13T03:21:56;100977.17;;;24.47;55.11
79538;BME280;68989;52.032;5.152;2023-10-13T03:24:23;100961.46;;;24.48;54.87
79538;BME280;68989;52.032;5.152;2023-10-13T03:26:51;100973.61;;;24.49;55.14
79538;BME280;68989;52.032;5.152;2023-10-13T03:29:18;100962.88;;;24.48;54.82
79538;BME280;68989;52.032;5.152;2023-10-13T03:31:45;100943.91;;;24.49;55.25
79538;BME280;68989;52.032;5.152;2023-10-13T03:34:13;100933.98;;;24.47;55.53
79538;BME280;68989;52.032;5.152;2023-10-13T03:36:40;100920.57;;;24.46;55.62
79538;BME280;68989;52.032;5.152;2023-10-13T03:39:08;100923.09;;;24.46;55.30
79538;BME280;68989;52.032;5.152;2023-10-13T03:41:35;100900.60;;;24.45;55.47
79538;BME280;68989;52.032;5.152;2023-10-13T03:44:03;100897.97;;;24.43;55.45
79538;BME280;68989;52.032;5.152;2023-10-13T03:46:32;100882.20;;;24.39;56.00
79538;BME280;68989;52.032;5.152;2023-10-13T03:48:59;100879.86;;;24.38;55.74
79538;BME280;68989;52.032;5.152;2023-10-13T03:51:28;100880.37;;;24.35;56.07
79538;BME280;68989;52.032;5.152;2023-10-13T03:53:55;100874.38;;;24.34;55.96
79538;BME280;68989;52.032;5.152;2023-10-13T03:56:24;100867.01;;;24.33;56.13
79538;BME280;68989;52.032;5.152;2023-10-13T03:58:51;100859.78;;;24.30;56.34
79538;BME280;68989;52.032;5.152;2023-10-13T04:01:19;100852.79;;;24.30;56.20
79538;BME280;68989;52.032;5.152;2023-10-13T04:03:48;100847.04;;;24.29;56.30
79538;BME280;68989;52.032;5.152;2023-10-13T04:06:16;100840.65;;;24.29;56.39
79538;BME280;68989;52.032;5.152;2023-10-13T04:08:43;100843.94;;;24.31;56.28
79538;BME280;68989;52.032;5.152;2023-10-13T04:11:14;100838.70;;;24.32;56.24
79538;BME280;68989;52.032;5.152;2023-10-13T04:13:41;100832.64;;;24.34;56.23
79538;BME280;68989;52.032;5.152;2023-10-13T04:16:08;100823.32;;;24.35;56.09
79538;BME280;68989;52.032;5.152;2023-10-13T04:18:35;100820.11;;;24.36;55.87
79538;BME280;68989;52.032;5.152;2023-10-13T04:21:03;100817.38;;;24.38;55.91
79538;BME280;68989;52.032;5.152;2023-10-13T04:23:31;100813.05;;;24.38;56.00
79538;BME280;68989;52.032;5.152;2023-10-13T04:25:59;100815.76;;;24.39;55.86
79538;BME280;68989;52.032;5.152;2023-10-13T04:28:31;100818.64;;;24.40;55.90
79538;BME280;68989;52.032;5.152;2023-10-13T04:30:59;100809.53;;;24.41;55.74
79538;BME280;68989;52.032;5.152;2023-10-13T04:33:28;100794.89;;;24.40;55.88
79538;BME280;68989;52.032;5.152;2023-10-13T04:36:01;100794.50;;;24.40;56.35
79538;BME280;68989;52.032;5.152;2023-10-13T04:38:29;100788.30;;;24.39;56.33
79538;BME280;68989;52.032;5.152;2023-10-13T04:40:59;100796.75;;;24.40;56.38
79538;BME280;68989;52.032;5.152;2023-10-13T04:43:26;100796.33;;;24.41;56.11
79538;BME280;68989;52.032;5.152;2023-10-13T04:45:53;100795.75;;;24.42;56.07
79538;BME280;68989;52.032;5.152;2023-10-13T04:48:25;100784.10;;;24.42;56.45
79538;BME280;68989;52.032;5.152;2023-10-13T04:50:52;100774.64;;;24.43;56.45
79538;BME280;68989;52.032;5.152;2023-10-13T04:53:20;100779.23;;;24.42;56.65
79538;BME280;68989;52.032;5.152;2023-10-13T04:55:49;100767.11;;;24.44;56.95
79538;BME280;68989;52.032;5.152;2023-10-13T04:58:17;100758.62;;;24.43;57.34
79538;BME280;68989;52.032;5.152;2023-10-13T05:00:44;100755.86;;;24.40;57.82
79538;BME280;68989;52.032;5.152;2023-10-13T05:03:12;100760.95;;;24.40;58.07
79538;BME280;68989;52.032;5.152;2023-10-13T05:05:43;100754.80;;;24.42;58.23
79538;BME280;68989;52.032;5.152;2023-10-13T05:08:11;100749.71;;;24.44;58.43
79538;BME280;68989;52.032;5.152;2023-10-13T05:10:38;100751.70;;;24.45;58.51
79538;BME280;68989;52.032;5.152;2023-10-13T05:13:05;100754.39;;;24.47;58.69
79538;BME280;68989;52.032;5.152;2023-10-13T05:15:32;100748.81;;;24.48;58.85
79538;BME280;68989;52.032;5.152;2023-10-13T05:18:00;100741.78;;;24.49;58.94
79538;BME280;68989;52.032;5.152;2023-10-13T05:20:29;100743.29;;;24.50;59.01
79538;BME280;68989;52.032;5.152;2023-10-13T05:22:56;100744.23;;;24.52;58.91
79538;BME280;68989;52.032;5.152;2023-10-13T05:25:24;100738.40;;;24.52;58.89
79538;BME280;68989;52.032;5.152;2023-10-13T05:27:51;100739.42;;;24.51;58.99
79538;BME280;68989;52.032;5.152;2023-10-13T05:30:18;100736.37;;;24.52;58.96
79538;BME280;68989;52.032;5.152;2023-10-13T05:32:45;100728.08;;;24.54;58.89
79538;BME280;68989;52.032;5.152;2023-10-13T05:35:14;100722.91;;;24.55;58.84
79538;BME280;68989;52.032;5.152;2023-10-13T05:37:42;100718.86;;;24.57;58.53
79538;BME280;68989;52.032;5.152;2023-10-13T05:40:11;100718.88;;;24.60;58.40
79538;BME280;68989;52.032;5.152;2023-10-13T05:42:38;100720.43;;;24.61;58.17
79538;BME280;68989;52.032;5.152;2023-10-13T05:45:07;100714.68;;;24.62;57.86
79538;BME280;68989;52.032;5.152;2023-10-13T05:51:00;100699.35;;;24.60;57.87
79538;BME280;68989;52.032;5.152;2023-10-13T05:53:27;100703.43;;;24.60;57.76
79538;BME280;68989;52.032;5.152;2023-10-13T05:56:00;100708.65;;;24.60;57.59
79538;BME280;68989;52.032;5.152;2023-10-13T05:58:27;100711.08;;;24.59;57.54
79538;BME280;68989;52.032;5.152;2023-10-13T06:00:55;100704.48;;;24.59;57.47
79538;BME280;68989;52.032;5.152;2023-10-13T06:03:22;100702.74;;;24.59;57.40
79538;BME280;68989;52.032;5.152;2023-10-13T06:05:49;100693.15;;;24.59;57.28
79538;BME280;68989;52.032;5.152;2023-10-13T06:08:17;100685.00;;;24.59;57.18
79538;BME280;68989;52.032;5.152;2023-10-13T06:10:49;100684.98;;;24.58;57.30
79538;BME280;68989;52.032;5.152;2023-10-13T06:13:16;100680.14;;;24.58;57.02
79538;BME280;68989;52.032;5.152;2023-10-13T06:15:42;100667.62;;;24.57;57.04
79538;BME280;68989;52.032;5.152;2023-10-13T06:18:09;100664.32;;;24.56;57.20
79538;BME280;68989;52.032;5.152;2023-10-13T06:20:39;100660.14;;;24.57;57.55
79538;BME280;68989;52.032;5.152;2023-10-13T06:23:06;100659.51;;;24.57;57.45
79538;BME280;68989;52.032;5.152;2023-10-13T06:25:34;100660.84;;;24.58;57.55
79538;BME280;68989;52.032;5.152;2023-10-13T06:28:01;100655.65;;;24.59;57.57
79538;BME280;68989;52.032;5.152;2023-10-13T06:30:28;100653.68;;;24.60;57.67
79538;BME280;68989;52.032;5.152;2023-10-13T06:32:56;100649.48;;;24.60;57.74
79538;BME280;68989;52.032;5.152;2023-10-13T06:35:23;100650.59;;;24.62;57.75
79538;BME280;68989;52.032;5.152;2023-10-13T06:37:50;100643.55;;;24.60;58.01
79538;BME280;68989;52.032;5.152;2023-10-13T06:40:17;100639.51;;;24.61;58.15
79538;BME280;68989;52.032;5.152;2023-10-13T06:42:45;100645.32;;;24.61;58.34
79538;BME280;68989;52.032;5.152;2023-10-13T06:45:13;100648.56;;;24.61;58.39
79538;BME280;68989;52.032;5.152;2023-10-13T06:47:40;100648.73;;;24.62;58.62
79538;BME280;68989;52.032;5.152;2023-10-13T06:50:08;100636.67;;;24.62;58.74
79538;BME280;68989;52.032;5.152;2023-10-13T06:52:36;100634.51;;;24.64;58.71
79538;BME280;68989;52.032;5.152;2023-10-13T06:55:03;100631.05;;;24.66;58.93
79538;BME280;68989;52.032;5.152;2023-10-13T06:57:30;100628.68;;;24.67;59.02
79538;BME280;68989;52.032;5.152;2023-10-13T06:59:57;100622.48;;;24.69;59.18
79538;BME280;68989;52.032;5.152;2023-10-13T07:02:24;100610.04;;;24.68;59.32
79538;BME280;68989;52.032;5.152;2023-10-13T07:04:50;100623.29;;;24.72;59.26
79538;BME280;68989;52.032;5.152;2023-10-13T07:07:18;100612.86;;;24.72;59.43
79538;BME280;68989;52.032;5.152;2023-10-13T07:09:45;100602.43;;;24.72;59.48
79538;BME280;68989;52.032;5.152;2023-10-13T07:12:12;100599.46;;;24.73;59.46
79538;BME280;68989;52.032;5.152;2023-10-13T07:14:39;100576.84;;;24.77;59.58
79538;BME280;68989;52.032;5.152;2023-10-13T07:17:07;100573.09;;;24.79;59.30
79538;BME280;68989;52.032;5.152;2023-10-13T07:19:33;100574.33;;;24.81;59.28
79538;BME280;68989;52.032;5.152;2023-10-13T07:22:01;100572.06;;;24.82;59.57
79538;BME280;68989;52.032;5.152;2023-10-13T07:24:29;100562.65;;;24.83;59.68
79538;BME280;68989;52.032;5.152;2023-10-13T07:26:56;100571.29;;;24.86;59.37
79538;BME280;68989;52.032;5.152;2023-10-13T07:29:24;100566.46;;;24.89;59.61
79538;BME280;68989;52.032;5.152;2023-10-13T07:31:50;100564.17;;;24.91;59.60
79538;BME280;68989;52.032;5.152;2023-10-13T07:34:17;100570.19;;;24.93;59.25
79538;BME280;68989;52.032;5.152;2023-10-13T07:36:44;100570.10;;;24.94;59.38
79538;BME280;68989;52.032;5.152;2023-10-13T07:39:11;100571.06;;;24.96;59.47
79538;BME280;68989;52.032;5.152;2023-10-13T07:41:38;100577.26;;;24.98;59.38
79538;BME280;68989;52.032;5.152;2023-10-13T07:44:05;100575.29;;;25.02;59.34
79538;BME280;68989;52.032;5.152;2023-10-13T07:46:32;100563.62;;;25.03;58.94
79538;BME280;68989;52.032;5.152;2023-10-13T07:49:00;100574.12;;;25.03;58.82
79538;BME280;68989;52.032;5.152;2023-10-13T07:51:27;100580.21;;;25.03;58.84
79538;BME280;68989;52.032;5.152;2023-10-13T07:53:54;100564.71;;;25.03;59.11
79538;BME280;68989;52.032;5.152;2023-10-13T07:56:21;100567.41;;;25.01;59.27
79538;BME280;68989;52.032;5.152;2023-10-13T07:58:49;100569.11;;;25.03;59.41
79538;BME280;68989;52.032;5.152;2023-10-13T08:01:16;100567.34;;;25.06;59.45
79538;BME280;68989;52.032;5.152;2023-10-13T08:03:43;100565.41;;;25.10;59.54
79538;BME280;68989;52.032;5.152;2023-10-13T08:06:11;100565.62;;;25.14;59.78
79538;BME280;68989;52.032;5.152;2023-10-13T08:08:39;100566.82;;;25.19;59.70
79538;BME280;68989;52.032;5.152;2023-10-13T08:11:06;100563.97;;;25.23;59.42
79538;BME280;68989;52.032;5.152;2023-10-13T08:13:34;100550.99;;;25.24;59.37
79538;BME280;68989;52.032;5.152;2023-10-13T08:16:01;100534.87;;;25.25;59.18
79538;BME280;68989;52.032;5.152;2023-10-13T08:18:29;100539.70;;;25.27;59.18
79538;BME280;68989;52.032;5.152;2023-10-13T08:20:57;100540.38;;;25.30;59.21
79538;BME280;68989;52.032;5.152;2023-10-13T08:23:24;100544.93;;;25.31;59.04
79538;BME280;68989;52.032;5.152;2023-10-13T08:25:51;100548.11;;;25.33;59.04
79538;BME280;68989;52.032;5.152;2023-10-13T08:28:17;100534.46;;;25.36;58.94
79538;BME280;68989;52.032;5.152;2023-10-13T08:30:45;100539.73;;;25.39;58.87
79538;BME280;68989;52.032;5.152;2023-10-13T08:33:11;100533.38;;;25.41;58.37
79538;BME280;68989;52.032;5.152;2023-10-13T08:35:38;100527.59;;;25.43;58.21
79538;BME280;68989;52.032;5.152;2023-10-13T08:38:06;100535.49;;;25.45;58.55
79538;BME280;68989;52.032;5.152;2023-10-13T08:40:33;100534.56;;;25.46;58.46
79538;BME280;68989;52.032;5.152;2023-10-13T08:43:03;100535.98;;;25.49;58.58
79538;BME280;68989;52.032;5.152;2023-10-13T08:45:36;100543.88;;;25.53;58.53
79538;BME280;68989;52.032;5.152;2023-10-13T08:48:06;100508.63;;;25.53;58.26
79538;BME280;68989;52.032;5.152;2023-10-13T08:50:37;100519.64;;;25.52;58.39
79538;BME280;68989;52.032;5.152;2023-10-13T08:53:04;100523.18;;;25.54;58.34
79538;BME280;68989;52.032;5.152;2023-10-13T08:55:32;100519.86;;;25.56;58.20
79538;BME280;68989;52.032;5.152;2023-10-13T08:57:59;100512.31;;;25.59;58.30
79538;BME280;68989;52.032;5.152;2023-10-13T09:00:26;100510.69;;;25.61;58.07
79538;BME280;68989;52.032;5.152;2023-10-13T09:02:53;100503.29;;;25.63;57.89
79538;BME280;68989;52.032;5.152;2023-10-13T09:05:20;100507.52;;;25.64;58.04
79538;BME280;68989;52.032;5.152;2023-10-13T09:07:48;100493.69;;;25.63;57.77
79538;BME280;68989;52.032;5.152;2023-10-13T09:10:22;100491.74;;;25.61;57.82
79538;BME280;68989;52.032;5.152;2023-10-13T09:12:54;100483.57;;;25.63;57.54
79538;BME280;68989;52.032;5.152;2023-10-13T09:15:29;100487.45;;;25.63;57.42
79538;BME280;68989;52.032;5.152;2023-10-13T09:17:57;100497.65;;;25.64;57.47
79538;BME280;68989;52.032;5.152;2023-10-13T09:20:32;100498.00;;;25.66;57.52
79538;BME280;68989;52.032;5.152;2023-10-13T09:22:59;100493.17;;;25.68;57.31
79538;BME280;68989;52.032;5.152;2023-10-13T09:25:35;100492.69;;;25.70;57.22
79538;BME280;68989;52.032;5.152;2023-10-13T09:28:04;100490.68;;;25.70;57.31
79538;BME280;68989;52.032;5.152;2023-10-13T09:30:43;100494.89;;;25.73;57.53
79538;BME280;68989;52.032;5.152;2023-10-13T09:33:10;100476.77;;;25.75;57.61
79538;BME280;68989;52.032;5.152;2023-10-13T09:35:38;100477.48;;;25.78;57.29
79538;BME280;68989;52.032;5.152;2023-10-13T09:38:06;100467.16;;;25.79;57.36
79538;BME280;68989;52.032;5.152;2023-10-13T09:40:34;100474.31;;;25.82;57.40
79538;BME280;68989;52.032;5.152;2023-10-13T09:43:01;100470.94;;;25.85;57.39
79538;BME280;68989;52.032;5.152;2023-10-13T09:45:31;100461.13;;;25.88;57.42
79538;BME280;68989;52.032;5.152;2023-10-13T09:48:02;100464.74;;;25.91;57.24
79538;BME280;68989;52.032;5.152;2023-10-13T09:50:30;100453.93;;;25.91;56.83
79538;BME280;68989;52.032;5.152;2023-10-13T09:52:58;100440.15;;;25.93;56.74
79538;BME280;68989;52.032;5.152;2023-10-13T09:55:29;100441.76;;;25.93;56.67
79538;BME280;68989;52.032;5.152;2023-10-13T09:58:02;100438.70;;;25.93;56.46
79538;BME280;68989;52.032;5.152;2023-10-13T10:00:32;100428.69;;;25.93;56.39
79538;BME280;68989;52.032;5.152;2023-10-13T10:03:00;100428.55;;;25.93;56.45
79538;BME280;68989;52.032;5.152;2023-10-13T10:05:28;100427.92;;;25.92;56.33
79538;BME280;68989;52.032;5.152;2023-10-13T10:07:56;100417.60;;;25.91;56.39
79538;BME280;68989;52.032;5.152;2023-10-13T10:10:27;100421.86;;;25.92;56.68
79538;BME280;68989;52.032;5.152;2023-10-13T10:13:04;100428.11;;;25.95;56.25
79538;BME280;68989;52.032;5.152;2023-10-13T10:15:35;100426.84;;;25.97;56.32
79538;BME280;68989;52.032;5.152;2023-10-13T10:18:03;100421.90;;;25.99;56.38
79538;BME280;68989;52.032;5.152;2023-10-13T10:20:32;100420.16;;;26.01;56.08
79538;BME280;68989;52.032;5.152;2023-10-13T10:23:00;100422.66;;;26.04;56.51
79538;BME280;68989;52.032;5.152;2023-10-13T10:25:31;100422.00;;;26.10;56.71
79538;BME280;68989;52.032;5.152;2023-10-13T10:27:59;100418.96;;;26.16;56.71
79538;BME280;68989;52.032;5.152;2023-10-13T10:30:26;100410.08;;;26.21;56.62
79538;BME280;68989;52.032;5.152;2023-10-13T10:32:54;100407.89;;;26.27;56.84
79538;BME280;68989;52.032;5.152;2023-10-13T10:35:23;100407.86;;;26.30;56.08
79538;BME280;68989;52.032;5.152;2023-10-13T10:37:50;100398.42;;;26.37;56.71
79538;BME280;68989;52.032;5.152;2023-10-13T10:40:18;100407.31;;;26.43;55.83
79538;BME280;68989;52.032;5.152;2023-10-13T10:42:50;100404.55;;;26.49;56.14
79538;BME280;68989;52.032;5.152;2023-10-13T10:45:18;100406.26;;;26.56;55.89
79538;BME280;68989;52.032;5.152;2023-10-13T10:47:47;100401.71;;;26.64;55.56
79538;BME280;68989;52.032;5.152;2023-10-13T10:50:25;100396.68;;;26.71;55.58
79538;BME280;68989;52.032;5.152;2023-10-13T10:52:52;100386.51;;;26.76;55.43
79538;BME280;68989;52.032;5.152;2023-10-13T10:55:20;100394.36;;;26.81;55.38
79538;BME280;68989;52.032;5.152;2023-10-13T10:57:58;100379.52;;;26.87;55.20
79538;BME280;68989;52.032;5.152;2023-10-13T11:00:25;100381.61;;;26.94;54.75
79538;BME280;68989;52.032;5.152;2023-10-13T11:02:55;100384.52;;;26.98;54.64
79538;BME280;68989;52.032;5.152;2023-10-13T11:05:23;100373.45;;;27.03;54.27
79538;BME280;68989;52.032;5.152;2023-10-13T11:07:50;100374.05;;;27.06;54.05
79538;BME280;68989;52.032;5.152;2023-10-13T11:10:17;100363.11;;;27.09;53.66
79538;BME280;68989;52.032;5.152;2023-10-13T11:12:54;100353.81;;;27.12;53.57
79538;BME280;68989;52.032;5.152;2023-10-13T11:15:21;100337.18;;;27.10;53.26
79538;BME280;68989;52.032;5.152;2023-10-13T11:17:49;100342.31;;;27.10;53.20
79538;BME280;68989;52.032;5.152;2023-10-13T11:20:18;100327.49;;;27.09;52.97
79538;BME280;68989;52.032;5.152;2023-10-13T11:22:47;100336.09;;;27.08;52.49
79538;BME280;68989;52.032;5.152;2023-10-13T11:25:23;100323.92;;;27.08;52.53
79538;BME280;68989;52.032;5.152;2023-10-13T11:27:51;100328.00;;;27.06;52.33
79538;BME280;68989;52.032;5.152;2023-10-13T11:30:19;100325.95;;;27.05;52.08
79538;BME280;68989;52.032;5.152;2023-10-13T11:32:57;100325.52;;;27.06;51.80
79538;BME280;68989;52.032;5.152;2023-10-13T11:35:24;100314.69;;;27.06;51.53
79538;BME280;68989;52.032;5.152;2023-10-13T11:37:52;100323.45;;;27.10;51.74
79538;BME280;68989;52.032;5.152;2023-10-13T11:40:19;100316.12;;;27.13;51.66
79538;BME280;68989;52.032;5.152;2023-10-13T11:42:46;100314.67;;;27.16;51.31
79538;BME280;68989;52.032;5.152;2023-10-13T11:45:13;100304.09;;;27.15;51.13
79538;BME280;68989;52.032;5.152;2023-10-13T11:47:40;100305.24;;;27.15;50.74
79538;BME280;68989;52.032;5.152;2023-10-13T11:50:07;100317.80;;;27.18;50.54
79538;BME280;68989;52.032;5.152;2023-10-13T11:52:34;100311.95;;;27.19;50.19
79538;BME280;68989;52.032;5.152;2023-10-13T11:55:02;100311.43;;;27.21;50.03
79538;BME280;68989;52.032;5.152;2023-10-13T11:57:29;100329.49;;;27.21;49.93
79538;BME280;68989;52.032;5.152;2023-10-13T11:59:56;100316.19;;;27.22;49.97
79538;BME280;68989;52.032;5.152;2023-10-13T12:02:24;100322.28;;;27.25;49.52
79538;BME280;68989;52.032;5.152;2023-10-13T12:04:51;100323.23;;;27.28;49.41
79538;BME280;68989;52.032;5.152;2023-10-13T12:07:18;100322.20;;;27.31;49.44
79538;BME280;68989;52.032;5.152;2023-10-13T12:09:46;100327.34;;;27.31;49.42
79538;BME280;68989;52.032;5.152;2023-10-13T12:12:13;100323.33;;;27.30;49.20
79538;BME280;68989;52.032;5.152;2023-10-13T12:14:40;100332.53;;;27.28;49.25
79538;BME280;68989;52.032;5.152;2023-10-13T12:17:07;100325.38;;;27.25;48.78
79538;BME280;68989;52.032;5.152;2023-10-13T12:19:35;100309.82;;;27.26;49.08
79538;BME280;68989;52.032;5.152;2023-10-13T12:22:01;100308.04;;;27.27;48.85
79538;BME280;68989;52.032;5.152;2023-10-13T12:24:28;100308.35;;;27.30;49.00
79538;BME280;68989;52.032;5.152;2023-10-13T12:26:55;100309.58;;;27.32;48.75
79538;BME280;68989;52.032;5.152;2023-10-13T12:29:24;100296.40;;;27.32;48.48
79538;BME280;68989;52.032;5.152;2023-10-13T12:31:52;100288.26;;;27.34;48.38
79538;BME280;68989;52.032;5.152;2023-10-13T12:34:19;100292.17;;;27.36;48.41
79538;BME280;68989;52.032;5.152;2023-10-13T12:36:46;100296.63;;;27.37;48.47
79538;BME280;68989;52.032;5.152;2023-10-13T12:39:14;100295.45;;;27.39;48.11
79538;BME280;68989;52.032;5.152;2023-10-13T12:41:41;100300.68;;;27.40;48.08
79538;BME280;68989;52.032;5.152;2023-10-13T12:44:09;100295.39;;;27.40;48.16
79538;BME280;68989;52.032;5.152;2023-10-13T12:46:39;100302.11;;;27.39;48.24
79538;BME280;68989;52.032;5.152;2023-10-13T12:49:07;100301.78;;;27.42;48.39
79538;BME280;68989;52.032;5.152;2023-10-13T12:51:34;100296.22;;;27.42;48.29
79538;BME280;68989;52.032;5.152;2023-10-13T12:54:02;100300.18;;;27.41;48.34
79538;BME280;68989;52.032;5.152;2023-10-13T12:56:31;100307.34;;;27.38;48.38
79538;BME280;68989;52.032;5.152;2023-10-13T12:59:02;100299.42;;;27.37;48.41